createdAt,value
2019-05-22T00:00:16.580Z,75.20
2019-05-22T00:02:47.773Z,75.80
2019-05-22T00:05:31.746Z,76.20
2019-05-22T00:08:02.349Z,76.10
2019-05-22T00:10:34.243Z,76.20
2019-05-22T00:13:04.755Z,75.90
2019-05-22T00:15:38.228Z,76.10
2019-05-22T00:18:08.243Z,76.80
2019-05-22T00:20:39.361Z,75.30
2019-05-22T00:23:10.139Z,76.00
2019-05-22T00:25:40.689Z,76.60
2019-05-22T00:28:10.601Z,76.70
2019-05-22T00:30:42.140Z,77.00
2019-05-22T00:33:11.859Z,76.60
2019-05-22T00:35:42.454Z,76.80
2019-05-22T00:38:12.122Z,75.70
2019-05-22T00:40:43.139Z,76.20
2019-05-22T00:43:16.994Z,75.90
2019-05-22T00:45:49.310Z,75.20
2019-05-22T00:48:21.794Z,75.80
2019-05-22T00:50:55.488Z,76.30
2019-05-22T00:53:32.199Z,76.10
2019-05-22T00:56:04.662Z,75.70
2019-05-22T00:58:35.573Z,76.00
2019-05-22T01:01:09.775Z,75.80
2019-05-22T01:03:40.134Z,75.60
2019-05-22T01:06:12.237Z,75.70
2019-05-22T01:08:42.253Z,75.60
2019-05-22T01:11:14.407Z,76.20
2019-05-22T01:13:44.240Z,76.30
2019-05-22T01:16:16.179Z,76.50
2019-05-22T01:18:46.846Z,75.90
2019-05-22T01:21:21.767Z,76.30
2019-05-22T01:23:52.371Z,75.60
2019-05-22T01:26:22.917Z,75.20
2019-05-22T01:28:53.157Z,74.40
2019-05-22T01:31:24.116Z,75.30
2019-05-22T01:33:55.859Z,76.40
2019-05-22T01:36:27.041Z,76.80
2019-05-22T01:39:01.172Z,76.50
2019-05-22T01:41:32.161Z,76.30
2019-05-22T01:44:06.019Z,76.30
2019-05-22T01:46:36.600Z,76.70
2019-05-22T01:49:10.315Z,76.60
2019-05-22T01:51:39.510Z,76.70
2019-05-22T01:54:08.975Z,77.00
2019-05-22T01:56:39.754Z,77.00
2019-05-22T01:59:09.706Z,76.60
2019-05-22T02:01:40.188Z,76.00
2019-05-22T02:04:09.820Z,75.80
2019-05-22T02:06:39.207Z,75.80
2019-05-22T02:09:21.566Z,76.20
2019-05-22T02:11:58.340Z,76.10
2019-05-22T02:14:27.892Z,76.70
2019-05-22T02:16:58.522Z,77.20
2019-05-22T02:19:28.317Z,76.10
2019-05-22T02:21:59.298Z,76.40
2019-05-22T02:24:30.794Z,76.40
2019-05-22T02:27:02.157Z,76.80
2019-05-22T02:29:32.145Z,76.80
2019-05-22T02:32:01.118Z,77.30
2019-05-22T02:34:30.115Z,77.20
2019-05-22T02:36:59.244Z,77.20
2019-05-22T02:39:31.173Z,77.40
2019-05-22T02:42:16.351Z,77.60
2019-05-22T02:44:46.846Z,77.80
2019-05-22T02:47:20.497Z,77.80
2019-05-22T02:49:50.742Z,77.40
2019-05-22T02:52:20.433Z,77.60
2019-05-22T02:54:49.978Z,77.10
2019-05-22T02:57:19.195Z,77.40
2019-05-22T02:59:48.265Z,76.70
2019-05-22T03:02:19.363Z,76.30
2019-05-22T03:04:59.199Z,75.80
2019-05-22T03:07:29.957Z,76.40
2019-05-22T03:10:02.671Z,76.90
2019-05-22T03:12:34.602Z,77.00
2019-05-22T03:15:05.815Z,76.40
2019-05-22T03:17:37.023Z,76.60
2019-05-22T03:20:10.408Z,76.90
2019-05-22T03:23:00.770Z,76.80
2019-05-22T03:25:32.513Z,76.30
2019-05-22T03:28:02.155Z,76.20
2019-05-22T03:30:34.630Z,77.10
2019-05-22T03:33:06.351Z,75.20
2019-05-22T03:35:38.612Z,75.00
2019-05-22T03:38:09.751Z,75.50
2019-05-22T03:40:39.378Z,75.80
2019-05-22T03:43:25.298Z,76.10
2019-05-22T03:45:56.794Z,75.40
2019-05-22T03:48:27.938Z,75.60
2019-05-22T03:51:00.025Z,75.80
2019-05-22T03:53:29.929Z,75.00
2019-05-22T03:55:59.230Z,76.10
2019-05-22T03:58:29.100Z,76.00
2019-05-22T04:01:01.465Z,75.20
2019-05-22T04:03:31.714Z,75.20
2019-05-22T04:06:01.336Z,75.20
2019-05-22T04:08:31.180Z,76.30
2019-05-22T04:11:05.241Z,76.60
2019-05-22T04:13:36.020Z,76.80
2019-05-22T04:16:07.256Z,76.50
2019-05-22T04:18:37.696Z,76.40
2019-05-22T04:21:06.790Z,76.10
2019-05-22T04:23:37.833Z,76.00
2019-05-22T04:26:09.762Z,76.10
2019-05-22T04:28:41.912Z,76.50
2019-05-22T04:31:12.702Z,76.40
2019-05-22T04:33:42.675Z,75.60
2019-05-22T04:36:12.267Z,76.10
2019-05-22T04:38:42.529Z,75.80
2019-05-22T04:41:11.600Z,75.50
2019-05-22T04:43:41.426Z,75.30
2019-05-22T04:46:11.434Z,76.10
2019-05-22T04:48:45.815Z,76.30
2019-05-22T04:51:26.264Z,76.30
2019-05-22T04:53:56.290Z,76.60
2019-05-22T04:56:27.287Z,75.80
2019-05-22T04:58:58.972Z,75.80
2019-05-22T05:01:28.965Z,76.20
2019-05-22T05:03:58.733Z,75.50
2019-05-22T05:06:29.635Z,75.70
2019-05-22T05:08:59.357Z,75.20
2019-05-22T05:11:29.249Z,74.40
2019-05-22T05:13:58.449Z,74.40
2019-05-22T05:16:27.514Z,75.30
2019-05-22T05:18:56.980Z,76.10
2019-05-22T05:21:26.110Z,76.20
2019-05-22T05:23:55.924Z,75.60
2019-05-22T05:26:26.931Z,76.10
2019-05-22T05:28:56.871Z,75.20
2019-05-22T05:31:26.477Z,73.30
2019-05-22T05:34:01.108Z,73.10
2019-05-22T05:36:31.509Z,72.70
2019-05-22T05:39:01.375Z,72.80
2019-05-22T05:41:30.892Z,73.70
2019-05-22T05:44:00.528Z,72.90
2019-05-22T05:46:29.638Z,74.30
2019-05-22T05:48:59.627Z,73.80
2019-05-22T05:51:33.865Z,73.40
2019-05-22T05:54:06.438Z,72.70
2019-05-22T05:56:37.554Z,71.90
2019-05-22T05:59:08.501Z,71.90
2019-05-22T06:01:43.844Z,72.30
2019-05-22T06:04:13.429Z,72.30
2019-05-22T06:06:51.976Z,71.40
2019-05-22T06:09:22.576Z,71.80
2019-05-22T06:11:59.506Z,70.10
2019-05-22T06:14:31.046Z,69.60
2019-05-22T06:17:07.776Z,71.30
2019-05-22T06:19:43.678Z,70.60
2019-05-22T06:22:16.329Z,68.90
2019-05-22T06:24:51.954Z,67.70
2019-05-22T06:27:25.551Z,66.20
2019-05-22T06:29:57.687Z,67.40
2019-05-22T06:32:52.617Z,68.60
2019-05-22T06:35:22.278Z,66.90
2019-05-22T06:38:12.170Z,67.60
2019-05-22T06:40:41.997Z,67.50
2019-05-22T06:43:24.663Z,65.40
2019-05-22T06:45:54.975Z,66.30
2019-05-22T06:48:24.400Z,66.10
2019-05-22T06:50:53.709Z,67.40
2019-05-22T06:53:22.961Z,68.40
2019-05-22T06:55:52.013Z,65.90
2019-05-22T06:58:21.015Z,62.80
2019-05-22T07:00:50.066Z,62.70
2019-05-22T07:03:19.509Z,60.60
2019-05-22T07:05:49.223Z,60.30
2019-05-22T07:08:18.303Z,59.30
2019-05-22T07:10:47.668Z,58.80
2019-05-22T07:13:17.997Z,59.20
2019-05-22T07:15:48.590Z,59.20
2019-05-22T07:18:20.211Z,58.50
2019-05-22T07:20:50.481Z,58.20
2019-05-22T07:23:21.856Z,57.50
2019-05-22T07:25:53.057Z,57.30
2019-05-22T07:28:24.562Z,58.00
2019-05-22T07:30:53.705Z,57.60
2019-05-22T07:33:24.066Z,56.10
2019-05-22T07:36:08.711Z,57.10
2019-05-22T07:38:24.790Z,55.20
2019-05-22T07:40:53.969Z,56.70
2019-05-22T07:43:23.167Z,55.40
2019-05-22T07:45:53.967Z,55.50
2019-05-22T07:48:25.945Z,56.10
2019-05-22T07:50:57.193Z,54.90
2019-05-22T07:53:26.434Z,56.00
2019-05-22T07:55:57.945Z,55.90
2019-05-22T07:58:29.701Z,54.40
2019-05-22T08:01:01.777Z,54.80
2019-05-22T08:03:31.814Z,54.80
2019-05-22T08:06:01.941Z,54.50
2019-05-22T08:08:33.399Z,55.20
2019-05-22T08:11:03.182Z,53.70
2019-05-22T08:13:33.186Z,56.00
2019-05-22T08:16:03.697Z,55.80
2019-05-22T08:18:34.867Z,54.50
2019-05-22T08:21:04.498Z,52.20
2019-05-22T08:23:34.286Z,52.00
2019-05-22T08:26:04.633Z,52.10
2019-05-22T08:28:34.818Z,51.70
2019-05-22T08:31:05.988Z,52.10
2019-05-22T08:33:37.445Z,51.90
2019-05-22T08:36:08.788Z,50.10
2019-05-22T08:38:38.735Z,51.70
2019-05-22T08:41:09.809Z,49.50
2019-05-22T08:44:11.432Z,49.20
2019-05-22T08:46:13.101Z,48.60
2019-05-22T08:48:47.799Z,51.20
2019-05-22T08:51:14.639Z,48.10
2019-05-22T08:53:47.980Z,48.30
2019-05-22T08:56:15.074Z,47.90
2019-05-22T08:58:44.950Z,49.80
2019-05-22T09:01:14.335Z,51.50
2019-05-22T09:03:43.616Z,47.80
2019-05-22T09:06:13.132Z,48.10
2019-05-22T09:08:42.643Z,48.60
2019-05-22T09:11:12.267Z,51.30
2019-05-22T09:13:41.375Z,48.30
2019-05-22T09:16:12.345Z,47.30
2019-05-22T09:18:41.710Z,46.80
2019-05-22T09:21:11.930Z,46.80
2019-05-22T09:23:42.199Z,46.00
2019-05-22T09:26:11.241Z,46.70
2019-05-22T09:28:40.410Z,45.20
2019-05-22T09:31:09.402Z,45.70
2019-05-22T09:33:39.956Z,45.00
2019-05-22T09:36:09.885Z,46.20
2019-05-22T09:38:39.270Z,43.70
2019-05-22T09:41:09.452Z,44.70
2019-05-22T09:43:39.052Z,44.30
2019-05-22T09:46:09.236Z,42.80
2019-05-22T09:48:38.887Z,43.40
2019-05-22T09:51:07.904Z,42.90
2019-05-22T09:53:38.385Z,46.50
2019-05-22T09:56:07.942Z,46.10
2019-05-22T09:58:37.874Z,45.70
2019-05-22T10:01:11.292Z,44.20
2019-05-22T10:03:38.852Z,43.80
2019-05-22T10:06:08.140Z,42.80
2019-05-22T10:08:38.289Z,43.40
2019-05-22T10:11:07.566Z,44.50
2019-05-22T10:13:37.055Z,42.50
2019-05-22T10:16:07.001Z,41.60
2019-05-22T10:18:36.120Z,41.50
2019-05-22T10:21:05.612Z,41.50
2019-05-22T10:23:35.289Z,40.50
2019-05-22T10:26:05.520Z,40.00
2019-05-22T10:28:35.735Z,40.60
2019-05-22T10:31:05.789Z,41.00
2019-05-22T10:33:35.544Z,40.90
2019-05-22T10:36:05.118Z,40.50
2019-05-22T10:38:34.316Z,41.70
2019-05-22T10:41:03.451Z,40.80
2019-05-22T10:43:33.370Z,42.70
2019-05-22T10:46:02.555Z,44.30
2019-05-22T10:48:31.642Z,40.60
2019-05-22T10:51:00.869Z,38.70
2019-05-22T10:53:34.123Z,38.60
2019-05-22T10:56:01.335Z,39.40
2019-05-22T10:58:31.096Z,39.90
2019-05-22T11:01:00.609Z,39.20
2019-05-22T11:03:30.827Z,41.20
2019-05-22T11:06:07.086Z,39.20
2019-05-22T11:08:34.296Z,39.60
2019-05-22T11:11:02.817Z,41.40
2019-05-22T11:13:34.382Z,40.50
2019-05-22T11:16:04.160Z,41.50
2019-05-22T11:18:33.331Z,41.60
2019-05-22T11:21:02.554Z,40.20
2019-05-22T11:23:32.272Z,38.10
2019-05-22T11:26:01.303Z,41.40
2019-05-22T11:28:31.648Z,40.90
2019-05-22T11:31:02.415Z,40.10
2019-05-22T11:33:34.204Z,38.80
2019-05-22T11:36:04.990Z,37.40
2019-05-22T11:38:35.183Z,36.20
2019-05-22T11:41:04.631Z,38.80
2019-05-22T11:43:34.754Z,38.00
2019-05-22T11:46:04.023Z,33.30
2019-05-22T11:48:33.381Z,34.40
2019-05-22T11:51:02.391Z,36.30
2019-05-22T11:53:31.797Z,38.70
2019-05-22T11:56:01.163Z,37.40
2019-05-22T11:58:30.552Z,37.50
2019-05-22T12:01:00.276Z,41.10
2019-05-22T12:03:32.538Z,34.70
2019-05-22T12:06:02.391Z,33.60
2019-05-22T12:08:32.351Z,34.30
2019-05-22T12:11:02.862Z,36.20
2019-05-22T12:13:32.817Z,35.60
2019-05-22T12:16:04.591Z,36.90
2019-05-22T12:18:34.800Z,32.90
2019-05-22T12:21:04.004Z,33.20
2019-05-22T12:23:33.727Z,33.00
2019-05-22T12:26:02.937Z,34.20
2019-05-22T12:28:33.208Z,33.50
2019-05-22T12:31:02.641Z,32.70
2019-05-22T12:33:32.395Z,35.60
2019-05-22T12:36:01.985Z,33.00
2019-05-22T12:38:32.611Z,33.80
2019-05-22T12:41:02.928Z,34.20
2019-05-22T12:43:34.207Z,36.30
2019-05-22T12:46:03.900Z,33.50
2019-05-22T12:48:33.817Z,36.20
2019-05-22T12:51:02.923Z,34.50
2019-05-22T12:53:33.328Z,35.10
2019-05-22T12:56:02.432Z,34.80
2019-05-22T12:58:33.768Z,34.60
2019-05-22T13:01:03.903Z,34.40
2019-05-22T13:03:35.393Z,31.10
2019-05-22T13:06:05.314Z,33.80
2019-05-22T13:08:35.783Z,31.60
2019-05-22T13:11:05.819Z,30.70
2019-05-22T13:13:36.059Z,32.50
2019-05-22T13:16:05.961Z,33.10
2019-05-22T13:18:36.304Z,30.10
2019-05-22T13:21:08.177Z,34.20
2019-05-22T13:23:41.040Z,33.20
2019-05-22T13:26:10.835Z,31.10
2019-05-22T13:28:42.054Z,32.60
2019-05-22T13:31:11.553Z,32.70
2019-05-22T13:33:43.595Z,32.60
2019-05-22T13:36:14.528Z,32.30
2019-05-22T13:38:43.813Z,35.10
2019-05-22T13:41:13.708Z,34.10
2019-05-22T13:43:42.699Z,33.80
2019-05-22T13:46:11.878Z,31.90
2019-05-22T13:48:40.983Z,35.30
2019-05-22T13:51:11.721Z,34.80
2019-05-22T13:53:42.260Z,33.00
2019-05-22T13:56:12.355Z,32.80
2019-05-22T13:58:42.635Z,30.00
2019-05-22T14:01:12.952Z,31.90
2019-05-22T14:03:42.112Z,29.40
2019-05-22T14:06:11.569Z,29.70
2019-05-22T14:08:41.057Z,29.70
2019-05-22T14:11:10.730Z,30.40
2019-05-22T14:13:40.119Z,32.30
2019-05-22T14:16:09.727Z,30.80
2019-05-22T14:18:38.838Z,31.40
2019-05-22T14:21:08.067Z,33.30
2019-05-22T14:23:38.523Z,33.20
2019-05-22T14:26:07.644Z,34.90
2019-05-22T14:28:38.115Z,35.40
2019-05-22T14:31:07.151Z,34.30
2019-05-22T14:33:40.377Z,33.50
2019-05-22T14:36:09.384Z,34.70
2019-05-22T14:38:39.551Z,34.90
2019-05-22T14:41:08.937Z,37.80
2019-05-22T14:43:38.110Z,34.20
2019-05-22T14:46:07.502Z,34.60
2019-05-22T14:48:38.372Z,35.20
2019-05-22T14:51:08.347Z,36.00
2019-05-22T14:53:40.290Z,32.00
2019-05-22T14:56:11.017Z,31.10
2019-05-22T14:58:41.740Z,32.10
2019-05-22T15:01:11.616Z,31.30
2019-05-22T15:03:42.806Z,32.00
2019-05-22T15:06:12.220Z,32.60
2019-05-22T15:08:41.312Z,29.80
2019-05-22T15:11:10.699Z,28.70
2019-05-22T15:13:39.918Z,28.20
2019-05-22T15:16:09.414Z,27.40
2019-05-22T15:18:38.463Z,27.90
2019-05-22T15:21:09.439Z,28.80
2019-05-22T15:23:40.075Z,27.70
2019-05-22T15:26:09.658Z,27.90
2019-05-22T15:28:39.460Z,29.20
2019-05-22T15:31:08.977Z,28.60
2019-05-22T15:33:38.663Z,29.40
2019-05-22T15:36:10.224Z,28.60
2019-05-22T15:38:40.994Z,29.00
2019-05-22T15:41:10.843Z,27.80
2019-05-22T15:43:41.008Z,30.00
2019-05-22T15:46:11.996Z,29.80
2019-05-22T15:48:43.156Z,30.20
2019-05-22T15:51:13.972Z,29.70
2019-05-22T15:53:45.963Z,29.30
2019-05-22T15:56:15.681Z,30.00
2019-05-22T15:58:49.172Z,30.10
2019-05-22T16:01:21.790Z,29.30
2019-05-22T16:03:51.837Z,29.90
2019-05-22T16:06:23.534Z,30.30
2019-05-22T16:08:53.914Z,31.20
2019-05-22T16:11:26.747Z,30.40
2019-05-22T16:13:58.552Z,31.60
2019-05-22T16:16:30.009Z,31.50
2019-05-22T16:19:02.989Z,32.30
2019-05-22T16:21:35.398Z,31.60
2019-05-22T16:24:07.366Z,34.00
2019-05-22T16:26:37.391Z,32.90
2019-05-22T16:29:07.573Z,31.90
2019-05-22T16:31:39.413Z,33.40
2019-05-22T16:34:08.536Z,33.10
2019-05-22T16:36:38.599Z,33.50
2019-05-22T16:39:10.510Z,32.90
2019-05-22T16:41:42.080Z,33.20
2019-05-22T16:44:12.442Z,33.90
2019-05-22T16:46:44.014Z,33.80
2019-05-22T16:49:14.409Z,32.90
2019-05-22T16:51:46.312Z,34.10
2019-05-22T16:54:20.428Z,33.80
2019-05-22T16:56:47.372Z,31.90
2019-05-22T16:59:17.971Z,32.30
2019-05-22T17:01:58.872Z,32.60
2019-05-22T17:04:18.809Z,30.50
2019-05-22T17:06:48.253Z,31.60
2019-05-22T17:09:18.820Z,32.00
2019-05-22T17:11:48.307Z,32.80
2019-05-22T17:14:19.311Z,31.40
2019-05-22T17:16:51.072Z,32.10
2019-05-22T17:19:27.203Z,32.80
2019-05-22T17:21:51.989Z,31.40
2019-05-22T17:24:21.245Z,32.90
2019-05-22T17:26:52.489Z,33.20
2019-05-22T17:29:22.138Z,33.90
2019-05-22T17:31:52.396Z,32.80
2019-05-22T17:34:31.840Z,33.80
2019-05-22T17:37:04.546Z,34.30
2019-05-22T17:39:36.936Z,33.40
2019-05-22T17:42:09.191Z,35.20
2019-05-22T17:44:40.729Z,36.00
2019-05-22T17:47:12.372Z,34.80
2019-05-22T17:49:42.615Z,34.10
2019-05-22T17:52:13.367Z,34.20
2019-05-22T17:54:42.808Z,33.80
2019-05-22T17:57:13.542Z,33.50
2019-05-22T17:59:42.755Z,33.90
2019-05-22T18:02:13.538Z,33.90
2019-05-22T18:04:43.074Z,36.90
2019-05-22T18:07:12.715Z,34.80
2019-05-22T18:09:41.846Z,33.90
2019-05-22T18:12:11.059Z,35.70
2019-05-22T18:14:40.031Z,36.40
2019-05-22T18:17:10.250Z,37.30
2019-05-22T18:19:39.827Z,37.20
2019-05-22T18:22:10.071Z,38.60
2019-05-22T18:24:39.186Z,39.10
2019-05-22T18:27:08.598Z,38.90
2019-05-22T18:29:37.824Z,39.30
2019-05-22T18:32:08.521Z,40.40
2019-05-22T18:34:39.104Z,40.40
2019-05-22T18:37:08.161Z,41.80
2019-05-22T18:39:37.259Z,42.30
2019-05-22T18:42:06.508Z,42.40
2019-05-22T18:44:35.611Z,41.70
2019-05-22T18:47:04.919Z,42.20
2019-05-22T18:49:34.058Z,42.10
2019-05-22T18:52:04.438Z,41.50
2019-05-22T18:54:33.441Z,42.20
2019-05-22T18:57:02.440Z,41.90
2019-05-22T18:59:31.526Z,43.00
2019-05-22T19:02:01.152Z,43.70
2019-05-22T19:04:30.330Z,45.10
2019-05-22T19:06:59.457Z,45.20
2019-05-22T19:09:28.493Z,44.90
2019-05-22T19:11:58.831Z,44.40
2019-05-22T19:14:27.996Z,44.00
2019-05-22T19:16:57.267Z,45.60
2019-05-22T19:19:28.396Z,47.40
2019-05-22T19:21:57.747Z,47.60
2019-05-22T19:24:26.907Z,48.60
2019-05-22T19:26:55.904Z,47.90
2019-05-22T19:29:25.290Z,47.40
2019-05-22T19:31:54.410Z,48.20
2019-05-22T19:34:23.797Z,48.20
2019-05-22T19:36:54.095Z,49.00
2019-05-22T19:39:23.234Z,50.60
2019-05-22T19:42:02.098Z,51.20
2019-05-22T19:44:23.361Z,51.80
2019-05-22T19:46:52.405Z,51.60
2019-05-22T19:49:22.986Z,50.30
2019-05-22T19:51:52.946Z,50.10
2019-05-22T19:54:22.822Z,50.60
2019-05-22T19:56:52.056Z,50.80
2019-05-22T19:59:21.783Z,50.60
2019-05-22T20:01:50.948Z,51.10
2019-05-22T20:04:20.146Z,51.60
2019-05-22T20:06:50.288Z,51.30
2019-05-22T20:09:19.368Z,51.00
2019-05-22T20:11:48.400Z,51.90
2019-05-22T20:14:17.553Z,51.90
2019-05-22T20:16:46.877Z,52.40
2019-05-22T20:19:15.895Z,53.00
2019-05-22T20:21:45.254Z,54.90
2019-05-22T20:24:14.717Z,55.80
2019-05-22T20:26:43.745Z,56.20
2019-05-22T20:29:15.493Z,55.80
2019-05-22T20:31:44.589Z,55.40
2019-05-22T20:34:14.819Z,55.40
2019-05-22T20:36:44.894Z,56.40
2019-05-22T20:39:17.986Z,55.10
2019-05-22T20:41:46.960Z,54.60
2019-05-22T20:44:16.525Z,55.00
2019-05-22T20:46:46.220Z,55.30
2019-05-22T20:49:15.780Z,55.40
2019-05-22T20:51:45.583Z,55.00
2019-05-22T20:54:15.298Z,55.00
2019-05-22T20:56:46.641Z,55.00
2019-05-22T20:59:19.083Z,55.80
2019-05-22T21:01:49.359Z,56.60
2019-05-22T21:04:20.455Z,57.70
2019-05-22T21:06:59.609Z,58.00
2019-05-22T21:09:27.543Z,58.30
2019-05-22T21:11:57.385Z,59.10
2019-05-22T21:14:26.595Z,59.00
2019-05-22T21:16:55.718Z,58.90
2019-05-22T21:19:25.283Z,59.00
2019-05-22T21:21:57.017Z,58.40
2019-05-22T21:24:26.598Z,58.70
2019-05-22T21:26:56.217Z,58.60
2019-05-22T21:29:26.086Z,58.60
2019-05-22T21:31:56.566Z,58.80
2019-05-22T21:34:26.258Z,58.70
2019-05-22T21:36:55.373Z,59.40
2019-05-22T21:39:24.862Z,60.00
2019-05-22T21:41:54.489Z,60.40
2019-05-22T21:44:23.585Z,60.80
2019-05-22T21:46:53.744Z,60.20
2019-05-22T21:49:24.198Z,59.60
2019-05-22T21:51:53.797Z,59.50
2019-05-22T21:54:23.201Z,59.30
2019-05-22T21:56:52.946Z,59.50
2019-05-22T21:59:22.094Z,59.00
2019-05-22T22:01:58.692Z,58.70
2019-05-22T22:04:30.774Z,58.90
2019-05-22T22:06:59.955Z,59.10
2019-05-22T22:09:29.646Z,59.10
2019-05-22T22:11:59.280Z,60.00
2019-05-22T22:14:30.139Z,60.20
2019-05-22T22:17:00.759Z,60.40
2019-05-22T22:19:30.261Z,60.50
2019-05-22T22:22:00.191Z,60.30
2019-05-22T22:24:30.069Z,60.20
2019-05-22T22:26:59.175Z,61.20
2019-05-22T22:29:28.427Z,62.70
2019-05-22T22:31:59.228Z,62.60
2019-05-22T22:34:37.227Z,62.00
2019-05-22T22:37:07.028Z,61.60
2019-05-22T22:39:38.334Z,62.00
2019-05-22T22:42:09.677Z,61.50
2019-05-22T22:44:39.169Z,61.20
2019-05-22T22:47:12.848Z,61.30
2019-05-22T22:49:42.768Z,61.90
2019-05-22T22:52:15.150Z,62.00
2019-05-22T22:54:45.638Z,62.40
2019-05-22T22:57:15.212Z,62.30
2019-05-22T22:59:44.518Z,62.30
2019-05-22T23:02:16.995Z,62.90
2019-05-22T23:04:47.819Z,63.00
2019-05-22T23:07:18.882Z,62.70
2019-05-22T23:09:48.623Z,62.00
2019-05-22T23:12:20.738Z,61.90
2019-05-22T23:14:53.335Z,62.80
2019-05-22T23:17:22.568Z,63.50
2019-05-22T23:19:51.627Z,63.50
2019-05-22T23:22:21.214Z,64.40
2019-05-22T23:24:52.084Z,63.90
2019-05-22T23:27:23.800Z,64.40
2019-05-22T23:29:54.625Z,64.50
2019-05-22T23:32:24.221Z,64.00
2019-05-22T23:34:55.465Z,65.00
2019-05-22T23:37:26.219Z,65.20
2019-05-22T23:39:56.115Z,65.30
2019-05-22T23:42:30.070Z,65.10
2019-05-22T23:45:02.150Z,65.90
2019-05-22T23:47:32.037Z,65.70
2019-05-22T23:50:01.649Z,65.90
2019-05-22T23:52:31.290Z,66.10
2019-05-22T23:55:01.722Z,66.30
2019-05-22T23:57:30.675Z,66.10
